Terminal Aerodrome Forecast
Issued by NWS

Home | Current Version | Previous Version | Graphics & Text | Print | Product List | Glossary On
Versions: 1 2 3 4 5 6 7 8 9 10 11 12 13 14 15 16 17
000
FTUS43 KLSX 162233 AAC
TAFSUS
TAF AMD
KSUS 162233Z 1623/1718 18007KT 6SM -SHRA VCTS BKN050CB
      TEMPO 1623/1701 3SM SHRA BKN020
     FM170600 19007KT 3SM -SHRA VCTS BKN035CB
     FM170900 22005KT P6SM VCTS OVC025CB
     FM171400 23007KT P6SM BKN030
     FM171700 25008KT P6SM SCT025=

USA.gov is the U.S. government's official web portal to all federal, state and local government web resources and services.